createdAt,value
2022-10-08T00:01:51.428Z,1.92
2022-10-08T00:06:53.291Z,2.20
2022-10-08T00:11:55.151Z,1.83
2022-10-08T00:16:56.992Z,2.35
2022-10-08T00:21:58.893Z,1.95
2022-10-08T00:27:00.775Z,2.38
2022-10-08T00:32:02.700Z,1.70
2022-10-08T00:37:04.582Z,1.73
2022-10-08T00:42:06.522Z,1.45
2022-10-08T00:48:00.888Z,2.00
2022-10-08T00:53:07.862Z,1.70
2022-10-08T00:58:20.663Z,2.33
2022-10-08T01:03:22.594Z,1.73
2022-10-08T01:08:34.917Z,3.05
2022-10-08T01:14:23.242Z,2.17
2022-10-08T01:20:04.967Z,2.28
2022-10-08T01:25:48.242Z,1.60
2022-10-08T01:31:12.530Z,1.85
2022-10-08T01:36:18.010Z,1.92
2022-10-08T01:41:24.257Z,2.15
2022-10-08T01:46:29.371Z,1.83
2022-10-08T01:51:48.066Z,2.50
2022-10-08T01:56:52.049Z,2.13
2022-10-08T02:01:59.590Z,2.10
2022-10-08T02:07:07.494Z,2.45
2022-10-08T02:17:36.566Z,1.55
2022-10-08T02:22:47.826Z,2.10
2022-10-08T02:28:01.856Z,2.00
2022-10-08T02:33:15.776Z,2.22
2022-10-08T02:38:27.337Z,2.50
2022-10-08T02:43:34.212Z,2.60
2022-10-08T02:48:37.082Z,2.87
2022-10-08T02:53:40.667Z,3.05
2022-10-08T02:58:43.917Z,2.60
2022-10-08T03:03:53.715Z,2.42
2022-10-08T03:08:59.613Z,2.60
2022-10-08T03:14:09.238Z,3.22
2022-10-08T03:19:13.666Z,2.97
2022-10-08T03:24:16.016Z,2.58
2022-10-08T03:29:17.855Z,3.55
2022-10-08T03:34:19.924Z,2.30
2022-10-08T03:39:21.714Z,2.92
2022-10-08T03:44:23.514Z,3.13
2022-10-08T03:49:25.460Z,3.17
2022-10-08T03:54:27.252Z,2.75
2022-10-08T03:59:29.237Z,3.70
2022-10-08T04:04:31.243Z,3.08
2022-10-08T04:09:33.107Z,3.15
2022-10-08T04:14:34.903Z,3.13
2022-10-08T04:19:36.694Z,2.88
2022-10-08T04:24:38.501Z,3.88
2022-10-08T04:29:40.478Z,3.25
2022-10-08T04:34:42.284Z,3.17
2022-10-08T04:39:44.093Z,3.85
2022-10-08T04:44:45.886Z,3.13
2022-10-08T04:49:48.292Z,3.42
2022-10-08T04:54:50.222Z,3.67
2022-10-08T05:00:13.613Z,3.22
2022-10-08T05:05:15.102Z,3.78
2022-10-08T05:10:17.023Z,3.78
2022-10-08T05:15:18.816Z,3.95
2022-10-08T05:20:20.881Z,3.65
2022-10-08T05:25:22.712Z,2.97
2022-10-08T05:30:24.540Z,4.13
2022-10-08T05:35:26.503Z,5.07
2022-10-08T05:40:29.752Z,3.63
2022-10-08T05:45:31.514Z,3.20
2022-10-08T05:50:36.666Z,3.92
2022-10-08T05:55:38.427Z,3.83
2022-10-08T06:00:40.195Z,3.70
2022-10-08T06:05:41.950Z,4.13
2022-10-08T06:10:54.091Z,4.18
2022-10-08T06:15:56.749Z,4.10
2022-10-08T06:21:03.813Z,3.97
2022-10-08T06:26:08.288Z,4.03
2022-10-08T06:31:10.152Z,3.67
2022-10-08T06:36:23.611Z,3.95
2022-10-08T06:41:27.853Z,4.25
2022-10-08T06:46:31.442Z,3.97
2022-10-08T06:51:34.326Z,4.20
2022-10-08T06:56:39.357Z,3.75
2022-10-08T07:01:41.242Z,4.30
2022-10-08T07:06:43.144Z,3.85
2022-10-08T07:11:45.176Z,4.00
2022-10-08T07:16:47.679Z,3.97
2022-10-08T07:21:49.659Z,4.07
2022-10-08T07:26:51.663Z,3.83
2022-10-08T07:31:53.804Z,3.30
2022-10-08T07:36:56.199Z,3.30
2022-10-08T07:41:58.004Z,3.60
2022-10-08T07:46:59.804Z,3.88
2022-10-08T07:52:01.664Z,3.58
2022-10-08T07:57:03.486Z,3.88
2022-10-08T08:02:05.406Z,3.38
2022-10-08T08:07:08.867Z,3.03
2022-10-08T08:12:12.576Z,2.38
2022-10-08T08:17:14.355Z,2.65
2022-10-08T08:22:16.193Z,2.20
2022-10-08T08:27:18.887Z,2.50
2022-10-08T08:32:26.137Z,3.05
2022-10-08T08:37:30.373Z,2.60
2022-10-08T08:42:42.403Z,2.10
2022-10-08T08:47:58.384Z,2.40
2022-10-08T08:53:00.432Z,2.17
2022-10-08T08:58:22.640Z,2.60
2022-10-08T09:03:41.276Z,2.65
2022-10-08T09:08:49.972Z,3.00
2022-10-08T09:14:06.208Z,2.75
2022-10-08T09:19:09.480Z,2.58
2022-10-08T09:24:11.594Z,2.83
2022-10-08T09:29:34.030Z,2.58
2022-10-08T09:34:36.422Z,1.90
2022-10-08T09:39:38.450Z,1.92
2022-10-08T09:44:50.336Z,2.53
2022-10-08T09:50:20.459Z,2.50
2022-10-08T09:55:36.567Z,2.17
2022-10-08T10:00:39.702Z,2.05
2022-10-08T10:05:41.664Z,2.63
2022-10-08T10:10:48.694Z,2.20
2022-10-08T10:16:00.100Z,2.60
2022-10-08T10:21:07.179Z,2.22
2022-10-08T10:26:17.923Z,2.22
2022-10-08T10:31:43.465Z,2.58
2022-10-08T10:36:53.604Z,2.08
2022-10-08T10:42:01.567Z,2.08
2022-10-08T10:47:05.406Z,1.83
2022-10-08T10:52:24.152Z,1.90
2022-10-08T10:57:56.289Z,1.40
2022-10-08T11:03:18.585Z,1.30
2022-10-08T11:08:33.520Z,1.23
2022-10-08T11:14:05.477Z,1.80
2022-10-08T11:19:35.052Z,1.60
2022-10-08T11:24:51.947Z,1.30
2022-10-08T11:30:14.136Z,1.42
2022-10-08T11:35:32.096Z,1.45
2022-10-08T11:40:43.454Z,1.33
2022-10-08T11:45:46.479Z,1.30
2022-10-08T11:50:48.908Z,1.27
2022-10-08T11:55:57.849Z,1.25
2022-10-08T12:01:06.601Z,1.65
2022-10-08T12:06:31.286Z,1.10
2022-10-08T12:11:35.569Z,1.10
2022-10-08T12:16:49.502Z,0.77
2022-10-08T12:21:51.573Z,0.85
2022-10-08T12:27:18.392Z,0.80
2022-10-08T12:32:21.158Z,0.95
2022-10-08T12:37:40.012Z,0.77
2022-10-08T12:42:42.247Z,0.52
2022-10-08T12:48:06.323Z,1.00
2022-10-08T12:53:13.490Z,0.50
2022-10-08T12:58:20.701Z,0.63
2022-10-08T13:03:23.023Z,0.50
2022-10-08T13:08:39.887Z,0.55
2022-10-08T13:13:43.714Z,0.50
2022-10-08T13:18:58.549Z,0.40
2022-10-08T13:24:13.863Z,1.20
2022-10-08T13:29:30.227Z,0.57
2022-10-08T13:34:55.038Z,0.50
2022-10-08T13:40:00.171Z,0.63
2022-10-08T13:45:04.922Z,0.75
2022-10-08T13:50:07.319Z,0.60
2022-10-08T13:55:21.593Z,0.55
2022-10-08T14:00:24.133Z,0.57
2022-10-08T14:05:28.772Z,0.50
2022-10-08T14:10:31.267Z,0.98
2022-10-08T14:15:33.403Z,0.90
2022-10-08T14:20:36.715Z,0.45
2022-10-08T14:25:38.857Z,0.63
2022-10-08T14:30:40.809Z,0.95
2022-10-08T14:35:43.031Z,0.75
2022-10-08T14:40:46.106Z,1.05
2022-10-08T14:45:48.491Z,0.60
2022-10-08T14:50:50.578Z,1.00
2022-10-08T14:56:10.973Z,1.25
2022-10-08T15:01:14.297Z,0.90
2022-10-08T15:06:16.207Z,0.90
2022-10-08T15:11:18.059Z,0.70
2022-10-08T15:16:19.965Z,0.77
2022-10-08T15:21:22.006Z,0.60
2022-10-08T15:26:23.919Z,0.70
2022-10-08T15:31:26.102Z,0.85
2022-10-08T15:36:33.157Z,0.77
2022-10-08T15:41:37.646Z,0.97
2022-10-08T15:46:39.557Z,0.73
2022-10-08T15:51:42.401Z,0.57
2022-10-08T15:56:44.291Z,0.70
2022-10-08T16:01:46.266Z,0.73
2022-10-08T16:06:48.122Z,0.90
2022-10-08T16:11:51.311Z,1.35
2022-10-08T16:16:53.826Z,4.15
2022-10-08T16:21:57.324Z,1.40
2022-10-08T16:26:59.346Z,0.80
2022-10-08T16:32:01.247Z,1.23
2022-10-08T16:37:05.013Z,0.80
2022-10-08T16:42:06.867Z,1.50
2022-10-08T16:47:09.025Z,0.90
2022-10-08T16:52:10.996Z,1.05
2022-10-08T16:57:13.103Z,0.90
2022-10-08T17:02:15.034Z,1.92
2022-10-08T17:07:23.147Z,1.48
2022-10-08T17:12:24.972Z,1.02
2022-10-08T17:17:26.832Z,1.10
2022-10-08T17:22:28.682Z,1.27
2022-10-08T17:27:30.498Z,1.20
2022-10-08T17:32:32.319Z,1.33
2022-10-08T17:37:34.252Z,1.30
2022-10-08T17:42:36.823Z,1.27
2022-10-08T17:47:39.020Z,0.90
2022-10-08T17:52:40.851Z,1.30
2022-10-08T17:57:42.602Z,1.27
2022-10-08T18:02:44.464Z,1.00
2022-10-08T18:07:47.510Z,1.25
2022-10-08T18:12:49.621Z,0.93
2022-10-08T18:17:53.137Z,1.33
2022-10-08T18:22:56.342Z,1.10
2022-10-08T18:27:59.558Z,1.63
2022-10-08T18:33:01.728Z,1.63
2022-10-08T18:38:03.472Z,1.27
2022-10-08T18:43:07.371Z,1.30
2022-10-08T18:48:09.286Z,1.08
2022-10-08T18:53:11.167Z,1.10
2022-10-08T18:58:12.964Z,1.08
2022-10-08T19:03:14.822Z,1.40
2022-10-08T19:08:17.328Z,1.15
2022-10-08T19:13:20.034Z,1.00
2022-10-08T19:18:21.913Z,1.23
2022-10-08T19:23:23.715Z,1.15
2022-10-08T19:28:25.730Z,1.17
2022-10-08T19:33:27.730Z,1.05
2022-10-08T19:38:29.547Z,1.20
2022-10-08T19:43:31.553Z,1.20
2022-10-08T19:48:33.431Z,1.42
2022-10-08T19:53:36.362Z,1.38
2022-10-08T19:58:41.427Z,1.48
2022-10-08T20:03:46.002Z,1.38
2022-10-08T20:08:47.907Z,1.15
2022-10-08T20:13:53.186Z,1.30
2022-10-08T20:19:00.681Z,1.25
2022-10-08T20:24:03.336Z,0.93
2022-10-08T20:29:07.985Z,1.42
2022-10-08T20:34:13.924Z,1.33
2022-10-08T20:39:18.821Z,1.02
2022-10-08T20:44:21.454Z,1.10
2022-10-08T20:49:23.440Z,1.25
2022-10-08T20:54:25.278Z,1.45
2022-10-08T20:59:27.053Z,1.05
2022-10-08T21:04:28.782Z,1.08
2022-10-08T21:09:30.701Z,1.10
2022-10-08T21:14:32.587Z,1.20
2022-10-08T21:19:34.691Z,1.20
2022-10-08T21:24:37.476Z,1.60
2022-10-08T21:29:39.272Z,1.65
2022-10-08T21:34:41.063Z,1.67
2022-10-08T21:39:43.131Z,1.33
2022-10-08T21:44:44.912Z,0.93
2022-10-08T21:49:47.171Z,1.42
2022-10-08T21:54:48.911Z,1.40
2022-10-08T21:59:50.828Z,1.58
2022-10-08T22:04:52.626Z,1.30
2022-10-08T22:09:54.443Z,1.17
2022-10-08T22:14:56.273Z,1.48
2022-10-08T22:19:58.077Z,1.75
2022-10-08T22:24:59.826Z,1.35
2022-10-08T22:30:01.606Z,1.30
2022-10-08T22:35:03.607Z,1.40
2022-10-08T22:40:05.927Z,1.70
2022-10-08T22:45:08.263Z,1.70
2022-10-08T22:50:10.247Z,1.40
2022-10-08T22:55:13.985Z,1.23
2022-10-08T23:00:15.921Z,1.23
2022-10-08T23:05:17.742Z,1.40
2022-10-08T23:10:19.767Z,1.23
2022-10-08T23:15:21.832Z,1.27
2022-10-08T23:20:23.647Z,1.08
2022-10-08T23:25:25.475Z,1.27
2022-10-08T23:30:42.611Z,0.80
2022-10-08T23:35:46.011Z,1.33
2022-10-08T23:40:47.842Z,1.20
2022-10-08T23:45:49.775Z,1.00
2022-10-08T23:50:53.083Z,1.30
2022-10-08T23:55:55.438Z,1.45
